sensor_id;sensor_type;location;lat;lon;timestamp;P1;durP1;ratioP1;P2;durP2;ratioP2
19173;SDS011;9719;49.322;8.536;2022-09-27T00:02:57;1.35;;;1.25;;
19173;SDS011;9719;49.322;8.536;2022-09-27T00:08:00;1.00;;;1.00;;
19173;SDS011;9719;49.322;8.536;2022-09-27T00:13:02;1.15;;;1.10;;
19173;SDS011;9719;49.322;8.536;2022-09-27T00:18:04;1.30;;;1.20;;
19173;SDS011;9719;49.322;8.536;2022-09-27T00:23:08;2.25;;;1.20;;
19173;SDS011;9719;49.322;8.536;2022-09-27T00:28:10;1.15;;;1.13;;
19173;SDS011;9719;49.322;8.536;2022-09-27T00:33:13;3.13;;;1.20;;
19173;SDS011;9719;49.322;8.536;2022-09-27T00:38:16;1.30;;;1.20;;
19173;SDS011;9719;49.322;8.536;2022-09-27T00:43:19;1.30;;;1.20;;
19173;SDS011;9719;49.322;8.536;2022-09-27T00:48:23;1.30;;;1.30;;
19173;SDS011;9719;49.322;8.536;2022-09-27T00:53:30;1.58;;;1.30;;
19173;SDS011;9719;49.322;8.536;2022-09-27T00:58:36;1.17;;;1.17;;
19173;SDS011;9719;49.322;8.536;2022-09-27T01:03:46;1.13;;;1.10;;
19173;SDS011;9719;49.322;8.536;2022-09-27T01:08:54;1.55;;;1.25;;
19173;SDS011;9719;49.322;8.536;2022-09-27T01:14:00;1.55;;;1.45;;
19173;SDS011;9719;49.322;8.536;2022-09-27T01:19:13;1.88;;;1.77;;
19173;SDS011;9719;49.322;8.536;2022-09-27T01:24:43;1.90;;;1.80;;
19173;SDS011;9719;49.322;8.536;2022-09-27T01:29:58;2.63;;;1.83;;
19173;SDS011;9719;49.322;8.536;2022-09-27T01:35:15;2.30;;;2.20;;
19173;SDS011;9719;49.322;8.536;2022-09-27T01:40:23;2.10;;;1.80;;
19173;SDS011;9719;49.322;8.536;2022-09-27T01:45:35;2.05;;;1.95;;
19173;SDS011;9719;49.322;8.536;2022-09-27T01:50:41;1.70;;;1.58;;
19173;SDS011;9719;49.322;8.536;2022-09-27T01:55:47;1.75;;;1.40;;
19173;SDS011;9719;49.322;8.536;2022-09-27T02:00:52;3.63;;;1.50;;
19173;SDS011;9719;49.322;8.536;2022-09-27T02:05:56;1.58;;;1.48;;
19173;SDS011;9719;49.322;8.536;2022-09-27T02:11:03;1.98;;;1.88;;
19173;SDS011;9719;49.322;8.536;2022-09-27T02:16:17;2.85;;;1.60;;
19173;SDS011;9719;49.322;8.536;2022-09-27T02:21:24;2.95;;;1.70;;
19173;SDS011;9719;49.322;8.536;2022-09-27T02:26:35;3.67;;;1.50;;
19173;SDS011;9719;49.322;8.536;2022-09-27T02:31:42;3.15;;;1.50;;
19173;SDS011;9719;49.322;8.536;2022-09-27T02:36:44;1.83;;;1.60;;
19173;SDS011;9719;49.322;8.536;2022-09-27T02:41:46;2.63;;;1.70;;
19173;SDS011;9719;49.322;8.536;2022-09-27T02:46:55;4.15;;;1.98;;
19173;SDS011;9719;49.322;8.536;2022-09-27T02:52:15;2.47;;;1.60;;
19173;SDS011;9719;49.322;8.536;2022-09-27T02:57:26;4.70;;;1.73;;
19173;SDS011;9719;49.322;8.536;2022-09-27T03:02:41;2.28;;;1.60;;
19173;SDS011;9719;49.322;8.536;2022-09-27T03:07:51;3.15;;;2.40;;
19173;SDS011;9719;49.322;8.536;2022-09-27T03:12:53;2.95;;;2.55;;
19173;SDS011;9719;49.322;8.536;2022-09-27T03:17:57;3.28;;;2.60;;
19173;SDS011;9719;49.322;8.536;2022-09-27T03:22:59;3.25;;;2.38;;
19173;SDS011;9719;49.322;8.536;2022-09-27T03:28:01;3.40;;;1.92;;
19173;SDS011;9719;49.322;8.536;2022-09-27T03:33:05;3.45;;;3.15;;
19173;SDS011;9719;49.322;8.536;2022-09-27T03:38:08;4.40;;;2.20;;
19173;SDS011;9719;49.322;8.536;2022-09-27T03:43:10;3.28;;;2.67;;
19173;SDS011;9719;49.322;8.536;2022-09-27T03:48:14;3.40;;;2.55;;
19173;SDS011;9719;49.322;8.536;2022-09-27T03:53:16;3.72;;;2.38;;
19173;SDS011;9719;49.322;8.536;2022-09-27T03:58:18;2.75;;;2.53;;
19173;SDS011;9719;49.322;8.536;2022-09-27T04:03:21;2.40;;;2.20;;
19173;SDS011;9719;49.322;8.536;2022-09-27T04:08:25;3.08;;;1.90;;
19173;SDS011;9719;49.322;8.536;2022-09-27T04:13:27;3.42;;;2.22;;
19173;SDS011;9719;49.322;8.536;2022-09-27T04:18:30;1.95;;;1.75;;
19173;SDS011;9719;49.322;8.536;2022-09-27T04:23:32;1.85;;;1.60;;
19173;SDS011;9719;49.322;8.536;2022-09-27T04:28:35;2.05;;;1.70;;
19173;SDS011;9719;49.322;8.536;2022-09-27T04:33:39;1.95;;;1.75;;
19173;SDS011;9719;49.322;8.536;2022-09-27T04:38:41;3.05;;;1.75;;
19173;SDS011;9719;49.322;8.536;2022-09-27T04:43:43;1.77;;;1.67;;
19173;SDS011;9719;49.322;8.536;2022-09-27T04:48:46;2.65;;;2.45;;
19173;SDS011;9719;49.322;8.536;2022-09-27T04:53:48;1.70;;;1.60;;
19173;SDS011;9719;49.322;8.536;2022-09-27T04:58:51;2.50;;;1.90;;
19173;SDS011;9719;49.322;8.536;2022-09-27T05:03:54;1.80;;;1.55;;
19173;SDS011;9719;49.322;8.536;2022-09-27T05:08:56;2.35;;;1.85;;
19173;SDS011;9719;49.322;8.536;2022-09-27T05:13:58;2.05;;;1.30;;
19173;SDS011;9719;49.322;8.536;2022-09-27T05:19:02;1.20;;;1.10;;
19173;SDS011;9719;49.322;8.536;2022-09-27T05:24:04;1.80;;;1.70;;
19173;SDS011;9719;49.322;8.536;2022-09-27T05:29:06;2.72;;;1.50;;
19173;SDS011;9719;49.322;8.536;2022-09-27T05:34:09;1.35;;;1.25;;
19173;SDS011;9719;49.322;8.536;2022-09-27T05:39:15;1.20;;;1.13;;
19173;SDS011;9719;49.322;8.536;2022-09-27T05:44:23;2.50;;;1.40;;
19173;SDS011;9719;49.322;8.536;2022-09-27T05:49:27;1.33;;;1.20;;
19173;SDS011;9719;49.322;8.536;2022-09-27T05:54:29;1.55;;;1.45;;
19173;SDS011;9719;49.322;8.536;2022-09-27T05:59:31;1.50;;;1.40;;
19173;SDS011;9719;49.322;8.536;2022-09-27T06:04:35;2.28;;;1.50;;
19173;SDS011;9719;49.322;8.536;2022-09-27T06:09:37;1.92;;;1.83;;
19173;SDS011;9719;49.322;8.536;2022-09-27T06:14:39;2.00;;;1.80;;
19173;SDS011;9719;49.322;8.536;2022-09-27T06:19:42;1.85;;;1.70;;
19173;SDS011;9719;49.322;8.536;2022-09-27T06:24:46;2.58;;;1.73;;
19173;SDS011;9719;49.322;8.536;2022-09-27T06:29:48;3.63;;;1.98;;
19173;SDS011;9719;49.322;8.536;2022-09-27T06:34:52;3.20;;;2.25;;
19173;SDS011;9719;49.322;8.536;2022-09-27T06:39:54;3.50;;;2.10;;
19173;SDS011;9719;49.322;8.536;2022-09-27T06:44:56;1.90;;;1.80;;
19173;SDS011;9719;49.322;8.536;2022-09-27T06:49:59;1.83;;;1.73;;
19173;SDS011;9719;49.322;8.536;2022-09-27T06:55:03;1.60;;;1.40;;
19173;SDS011;9719;49.322;8.536;2022-09-27T07:00:07;3.92;;;2.67;;
19173;SDS011;9719;49.322;8.536;2022-09-27T07:05:28;3.20;;;2.33;;
19173;SDS011;9719;49.322;8.536;2022-09-27T07:10:32;2.88;;;2.25;;
19173;SDS011;9719;49.322;8.536;2022-09-27T07:15:37;2.00;;;1.90;;
19173;SDS011;9719;49.322;8.536;2022-09-27T07:20:43;2.45;;;2.00;;
19173;SDS011;9719;49.322;8.536;2022-09-27T07:25:45;1.77;;;1.67;;
19173;SDS011;9719;49.322;8.536;2022-09-27T07:30:47;1.13;;;1.05;;
19173;SDS011;9719;49.322;8.536;2022-09-27T07:35:51;1.60;;;1.50;;
19173;SDS011;9719;49.322;8.536;2022-09-27T07:40:53;2.72;;;1.92;;
19173;SDS011;9719;49.322;8.536;2022-09-27T07:45:55;1.88;;;1.77;;
19173;SDS011;9719;49.322;8.536;2022-09-27T07:50:58;1.67;;;1.58;;
19173;SDS011;9719;49.322;8.536;2022-09-27T07:56:00;1.52;;;1.40;;
19173;SDS011;9719;49.322;8.536;2022-09-27T08:01:02;3.25;;;2.78;;
19173;SDS011;9719;49.322;8.536;2022-09-27T08:06:06;1.70;;;1.48;;
19173;SDS011;9719;49.322;8.536;2022-09-27T08:11:11;2.83;;;1.55;;
19173;SDS011;9719;49.322;8.536;2022-09-27T08:16:14;2.03;;;1.92;;
19173;SDS011;9719;49.322;8.536;2022-09-27T08:21:17;2.10;;;1.70;;
19173;SDS011;9719;49.322;8.536;2022-09-27T08:26:19;2.58;;;2.33;;
19173;SDS011;9719;49.322;8.536;2022-09-27T08:31:21;1.80;;;1.70;;
19173;SDS011;9719;49.322;8.536;2022-09-27T08:36:26;2.45;;;1.40;;
19173;SDS011;9719;49.322;8.536;2022-09-27T08:41:32;1.40;;;1.30;;
19173;SDS011;9719;49.322;8.536;2022-09-27T08:46:40;1.88;;;1.40;;
19173;SDS011;9719;49.322;8.536;2022-09-27T08:51:54;1.77;;;1.60;;
19173;SDS011;9719;49.322;8.536;2022-09-27T08:56:59;1.90;;;1.80;;
19173;SDS011;9719;49.322;8.536;2022-09-27T09:02:08;2.00;;;1.83;;
19173;SDS011;9719;49.322;8.536;2022-09-27T09:07:22;1.80;;;1.70;;
19173;SDS011;9719;49.322;8.536;2022-09-27T09:12:38;2.30;;;2.17;;
19173;SDS011;9719;49.322;8.536;2022-09-27T09:18:02;2.33;;;2.13;;
19173;SDS011;9719;49.322;8.536;2022-09-27T09:23:20;1.80;;;1.70;;
19173;SDS011;9719;49.322;8.536;2022-09-27T09:28:36;2.05;;;1.65;;
19173;SDS011;9719;49.322;8.536;2022-09-27T09:33:51;1.65;;;1.55;;
19173;SDS011;9719;49.322;8.536;2022-09-27T09:39:00;2.80;;;1.83;;
19173;SDS011;9719;49.322;8.536;2022-09-27T09:44:06;2.13;;;1.92;;
19173;SDS011;9719;49.322;8.536;2022-09-27T09:49:17;2.15;;;1.88;;
19173;SDS011;9719;49.322;8.536;2022-09-27T09:54:25;2.92;;;1.63;;
19173;SDS011;9719;49.322;8.536;2022-09-27T09:59:33;2.70;;;1.95;;
19173;SDS011;9719;49.322;8.536;2022-09-27T10:04:42;1.83;;;1.55;;
19173;SDS011;9719;49.322;8.536;2022-09-27T10:09:45;2.97;;;2.05;;
19173;SDS011;9719;49.322;8.536;2022-09-27T10:14:48;1.92;;;1.83;;
19173;SDS011;9719;49.322;8.536;2022-09-27T10:19:51;1.80;;;1.70;;
19173;SDS011;9719;49.322;8.536;2022-09-27T10:24:58;1.83;;;1.70;;
19173;SDS011;9719;49.322;8.536;2022-09-27T10:30:02;3.15;;;2.42;;
19173;SDS011;9719;49.322;8.536;2022-09-27T10:35:21;1.08;;;1.08;;
19173;SDS011;9719;49.322;8.536;2022-09-27T10:40:37;3.20;;;1.80;;
19173;SDS011;9719;49.322;8.536;2022-09-27T10:45:39;1.80;;;1.50;;
19173;SDS011;9719;49.322;8.536;2022-09-27T10:50:41;2.15;;;1.40;;
19173;SDS011;9719;49.322;8.536;2022-09-27T10:56:01;1.35;;;1.25;;
19173;SDS011;9719;49.322;8.536;2022-09-27T11:01:04;1.73;;;1.17;;
19173;SDS011;9719;49.322;8.536;2022-09-27T11:06:18;1.20;;;0.82;;
19173;SDS011;9719;49.322;8.536;2022-09-27T11:11:28;1.20;;;1.10;;
19173;SDS011;9719;49.322;8.536;2022-09-27T11:16:37;1.73;;;1.60;;
19173;SDS011;9719;49.322;8.536;2022-09-27T11:21:43;1.15;;;1.05;;
19173;SDS011;9719;49.322;8.536;2022-09-27T11:26:55;2.40;;;2.20;;
19173;SDS011;9719;49.322;8.536;2022-09-27T11:32:18;1.92;;;1.83;;
19173;SDS011;9719;49.322;8.536;2022-09-27T11:37:31;1.20;;;1.20;;
19173;SDS011;9719;49.322;8.536;2022-09-27T11:48:22;1.60;;;1.50;;
19173;SDS011;9719;49.322;8.536;2022-09-27T11:53:44;1.30;;;1.20;;
19173;SDS011;9719;49.322;8.536;2022-09-27T11:59:12;1.40;;;1.30;;
19173;SDS011;9719;49.322;8.536;2022-09-27T12:04:43;1.35;;;1.25;;
19173;SDS011;9719;49.322;8.536;2022-09-27T12:09:54;2.70;;;1.20;;
19173;SDS011;9719;49.322;8.536;2022-09-27T12:15:03;2.03;;;1.13;;
19173;SDS011;9719;49.322;8.536;2022-09-27T12:20:15;2.70;;;1.85;;
19173;SDS011;9719;49.322;8.536;2022-09-27T12:25:22;1.00;;;1.00;;
19173;SDS011;9719;49.322;8.536;2022-09-27T12:30:28;0.90;;;0.90;;
19173;SDS011;9719;49.322;8.536;2022-09-27T12:35:35;3.47;;;1.70;;
19173;SDS011;9719;49.322;8.536;2022-09-27T12:40:43;0.95;;;0.88;;
19173;SDS011;9719;49.322;8.536;2022-09-27T12:45:52;1.48;;;0.82;;
19173;SDS011;9719;49.322;8.536;2022-09-27T12:51:04;0.70;;;0.70;;
19173;SDS011;9719;49.322;8.536;2022-09-27T12:56:14;1.65;;;0.70;;
19173;SDS011;9719;49.322;8.536;2022-09-27T13:01:43;0.75;;;0.75;;
19173;SDS011;9719;49.322;8.536;2022-09-27T13:07:04;0.70;;;0.70;;
19173;SDS011;9719;49.322;8.536;2022-09-27T13:12:17;0.85;;;0.80;;
19173;SDS011;9719;49.322;8.536;2022-09-27T13:17:52;0.80;;;0.80;;
19173;SDS011;9719;49.322;8.536;2022-09-27T13:22:55;1.27;;;1.20;;
19173;SDS011;9719;49.322;8.536;2022-09-27T13:27:58;1.52;;;0.80;;
19173;SDS011;9719;49.322;8.536;2022-09-27T13:38:51;1.02;;;1.02;;
19173;SDS011;9719;49.322;8.536;2022-09-27T13:44:01;1.13;;;0.80;;
19173;SDS011;9719;49.322;8.536;2022-09-27T13:49:13;1.10;;;0.95;;
19173;SDS011;9719;49.322;8.536;2022-09-27T13:54:49;0.88;;;0.88;;
19173;SDS011;9719;49.322;8.536;2022-09-27T13:59:52;1.17;;;1.08;;
19173;SDS011;9719;49.322;8.536;2022-09-27T14:04:57;1.67;;;0.70;;
19173;SDS011;9719;49.322;8.536;2022-09-27T14:10:03;1.00;;;1.00;;
19173;SDS011;9719;49.322;8.536;2022-09-27T14:15:07;0.70;;;0.70;;
19173;SDS011;9719;49.322;8.536;2022-09-27T14:20:33;1.38;;;0.80;;
19173;SDS011;9719;49.322;8.536;2022-09-27T14:25:44;1.42;;;0.98;;
19173;SDS011;9719;49.322;8.536;2022-09-27T14:30:47;0.85;;;0.75;;
19173;SDS011;9719;49.322;8.536;2022-09-27T14:35:49;0.70;;;0.70;;
19173;SDS011;9719;49.322;8.536;2022-09-27T14:41:11;0.60;;;0.60;;
19173;SDS011;9719;49.322;8.536;2022-09-27T14:46:24;0.93;;;0.93;;
19173;SDS011;9719;49.322;8.536;2022-09-27T14:51:29;1.27;;;0.88;;
19173;SDS011;9719;49.322;8.536;2022-09-27T14:56:33;0.98;;;0.60;;
19173;SDS011;9719;49.322;8.536;2022-09-27T15:01:37;0.73;;;0.73;;
19173;SDS011;9719;49.322;8.536;2022-09-27T15:06:42;1.20;;;0.85;;
19173;SDS011;9719;49.322;8.536;2022-09-27T15:11:46;1.80;;;1.33;;
19173;SDS011;9719;49.322;8.536;2022-09-27T15:16:51;0.77;;;0.77;;
19173;SDS011;9719;49.322;8.536;2022-09-27T15:21:54;0.93;;;0.70;;
19173;SDS011;9719;49.322;8.536;2022-09-27T15:26:58;0.60;;;0.60;;
19173;SDS011;9719;49.322;8.536;2022-09-27T15:32:02;0.70;;;0.70;;
19173;SDS011;9719;49.322;8.536;2022-09-27T15:37:09;1.27;;;0.88;;
19173;SDS011;9719;49.322;8.536;2022-09-27T15:42:42;0.63;;;0.63;;
19173;SDS011;9719;49.322;8.536;2022-09-27T15:47:57;0.60;;;0.60;;
19173;SDS011;9719;49.322;8.536;2022-09-27T15:53:38;0.70;;;0.70;;
19173;SDS011;9719;49.322;8.536;2022-09-27T15:58:43;0.73;;;0.73;;
19173;SDS011;9719;49.322;8.536;2022-09-27T16:03:45;0.80;;;0.80;;
19173;SDS011;9719;49.322;8.536;2022-09-27T16:08:48;0.80;;;0.80;;
19173;SDS011;9719;49.322;8.536;2022-09-27T16:13:51;0.70;;;0.70;;
19173;SDS011;9719;49.322;8.536;2022-09-27T16:18:54;0.70;;;0.70;;
19173;SDS011;9719;49.322;8.536;2022-09-27T16:23:56;0.80;;;0.80;;
19173;SDS011;9719;49.322;8.536;2022-09-27T16:29:01;0.60;;;0.60;;
19173;SDS011;9719;49.322;8.536;2022-09-27T16:34:03;0.57;;;0.57;;
19173;SDS011;9719;49.322;8.536;2022-09-27T16:39:05;1.17;;;0.60;;
19173;SDS011;9719;49.322;8.536;2022-09-27T16:44:11;1.30;;;0.60;;
19173;SDS011;9719;49.322;8.536;2022-09-27T16:49:16;0.63;;;0.63;;
19173;SDS011;9719;49.322;8.536;2022-09-27T16:54:37;0.77;;;0.60;;
19173;SDS011;9719;49.322;8.536;2022-09-27T16:59:41;0.73;;;0.70;;
19173;SDS011;9719;49.322;8.536;2022-09-27T17:04:43;0.68;;;0.68;;
19173;SDS011;9719;49.322;8.536;2022-09-27T17:09:45;0.70;;;0.70;;
19173;SDS011;9719;49.322;8.536;2022-09-27T17:14:49;0.75;;;0.75;;
19173;SDS011;9719;49.322;8.536;2022-09-27T17:19:51;1.05;;;0.75;;
19173;SDS011;9719;49.322;8.536;2022-09-27T17:24:52;0.82;;;0.82;;
19173;SDS011;9719;49.322;8.536;2022-09-27T17:29:56;1.08;;;1.08;;
19173;SDS011;9719;49.322;8.536;2022-09-27T17:34:58;1.08;;;1.02;;
19173;SDS011;9719;49.322;8.536;2022-09-27T17:40:00;2.33;;;1.20;;
19173;SDS011;9719;49.322;8.536;2022-09-27T17:45:04;1.45;;;1.00;;
19173;SDS011;9719;49.322;8.536;2022-09-27T17:50:07;1.33;;;1.30;;
19173;SDS011;9719;49.322;8.536;2022-09-27T17:55:27;1.10;;;1.00;;
19173;SDS011;9719;49.322;8.536;2022-09-27T18:00:31;1.40;;;1.17;;
19173;SDS011;9719;49.322;8.536;2022-09-27T18:05:34;1.35;;;1.15;;
19173;SDS011;9719;49.322;8.536;2022-09-27T18:10:37;1.75;;;1.35;;
19173;SDS011;9719;49.322;8.536;2022-09-27T18:15:40;1.00;;;1.00;;
19173;SDS011;9719;49.322;8.536;2022-09-27T18:20:42;1.77;;;1.10;;
19173;SDS011;9719;49.322;8.536;2022-09-27T18:25:51;1.45;;;1.33;;
19173;SDS011;9719;49.322;8.536;2022-09-27T18:30:59;3.03;;;1.63;;
19173;SDS011;9719;49.322;8.536;2022-09-27T18:36:03;1.60;;;1.50;;
19173;SDS011;9719;49.322;8.536;2022-09-27T18:41:07;1.23;;;1.13;;
19173;SDS011;9719;49.322;8.536;2022-09-27T18:46:13;1.52;;;1.30;;
19173;SDS011;9719;49.322;8.536;2022-09-27T18:51:18;1.52;;;1.40;;
19173;SDS011;9719;49.322;8.536;2022-09-27T18:56:23;1.20;;;1.20;;
19173;SDS011;9719;49.322;8.536;2022-09-27T19:01:26;2.15;;;1.92;;
19173;SDS011;9719;49.322;8.536;2022-09-27T19:06:29;1.73;;;1.63;;
19173;SDS011;9719;49.322;8.536;2022-09-27T19:11:31;1.27;;;1.10;;
19173;SDS011;9719;49.322;8.536;2022-09-27T19:16:35;2.65;;;1.50;;
19173;SDS011;9719;49.322;8.536;2022-09-27T19:21:37;1.60;;;1.50;;
19173;SDS011;9719;49.322;8.536;2022-09-27T19:26:39;2.00;;;1.40;;
19173;SDS011;9719;49.322;8.536;2022-09-27T19:31:43;1.00;;;1.00;;
19173;SDS011;9719;49.322;8.536;2022-09-27T19:36:45;1.92;;;1.80;;
19173;SDS011;9719;49.322;8.536;2022-09-27T19:41:46;1.60;;;1.13;;
19173;SDS011;9719;49.322;8.536;2022-09-27T19:46:50;2.17;;;1.00;;
19173;SDS011;9719;49.322;8.536;2022-09-27T19:51:52;1.73;;;1.20;;
19173;SDS011;9719;49.322;8.536;2022-09-27T19:56:54;1.52;;;1.10;;
19173;SDS011;9719;49.322;8.536;2022-09-27T20:01:57;1.90;;;1.23;;
19173;SDS011;9719;49.322;8.536;2022-09-27T20:06:59;1.20;;;1.08;;
19173;SDS011;9719;49.322;8.536;2022-09-27T20:12:01;1.20;;;1.10;;
19173;SDS011;9719;49.322;8.536;2022-09-27T20:17:04;1.23;;;0.98;;
19173;SDS011;9719;49.322;8.536;2022-09-27T20:22:07;1.55;;;0.93;;
19173;SDS011;9719;49.322;8.536;2022-09-27T20:27:09;1.42;;;1.20;;
19173;SDS011;9719;49.322;8.536;2022-09-27T20:32:12;1.42;;;0.98;;
19173;SDS011;9719;49.322;8.536;2022-09-27T20:37:14;1.23;;;0.90;;
19173;SDS011;9719;49.322;8.536;2022-09-27T20:42:16;1.02;;;0.90;;
19173;SDS011;9719;49.322;8.536;2022-09-27T20:47:20;3.08;;;1.00;;
19173;SDS011;9719;49.322;8.536;2022-09-27T20:52:22;1.20;;;1.10;;
19173;SDS011;9719;49.322;8.536;2022-09-27T20:57:24;1.20;;;1.10;;
19173;SDS011;9719;49.322;8.536;2022-09-27T21:02:27;1.23;;;1.20;;
19173;SDS011;9719;49.322;8.536;2022-09-27T21:07:29;0.80;;;0.80;;
19173;SDS011;9719;49.322;8.536;2022-09-27T21:12:31;0.98;;;0.90;;
19173;SDS011;9719;49.322;8.536;2022-09-27T21:17:35;0.90;;;0.90;;
19173;SDS011;9719;49.322;8.536;2022-09-27T21:22:36;1.55;;;1.45;;
19173;SDS011;9719;49.322;8.536;2022-09-27T21:27:38;1.15;;;1.10;;
19173;SDS011;9719;49.322;8.536;2022-09-27T21:32:42;0.93;;;0.90;;
19173;SDS011;9719;49.322;8.536;2022-09-27T21:37:44;1.45;;;1.25;;
19173;SDS011;9719;49.322;8.536;2022-09-27T21:42:48;1.45;;;1.35;;
19173;SDS011;9719;49.322;8.536;2022-09-27T21:47:51;1.20;;;1.20;;
19173;SDS011;9719;49.322;8.536;2022-09-27T21:52:53;1.30;;;1.30;;
19173;SDS011;9719;49.322;8.536;2022-09-27T21:57:56;1.40;;;1.30;;
19173;SDS011;9719;49.322;8.536;2022-09-27T22:02:59;2.15;;;1.95;;
19173;SDS011;9719;49.322;8.536;2022-09-27T22:08:01;5.32;;;1.83;;
19173;SDS011;9719;49.322;8.536;2022-09-27T22:13:03;2.30;;;2.08;;
19173;SDS011;9719;49.322;8.536;2022-09-27T22:18:06;2.00;;;1.45;;
19173;SDS011;9719;49.322;8.536;2022-09-27T22:23:08;1.23;;;1.13;;
19173;SDS011;9719;49.322;8.536;2022-09-27T22:28:10;1.98;;;1.25;;
19173;SDS011;9719;49.322;8.536;2022-09-27T22:33:13;5.55;;;2.05;;
19173;SDS011;9719;49.322;8.536;2022-09-27T22:38:15;1.00;;;1.00;;
19173;SDS011;9719;49.322;8.536;2022-09-27T22:43:17;2.38;;;2.17;;
19173;SDS011;9719;49.322;8.536;2022-09-27T22:48:21;3.50;;;1.85;;
19173;SDS011;9719;49.322;8.536;2022-09-27T22:53:23;1.30;;;0.90;;
19173;SDS011;9719;49.322;8.536;2022-09-27T22:58:26;1.23;;;1.00;;
19173;SDS011;9719;49.322;8.536;2022-09-27T23:03:29;1.27;;;1.15;;
19173;SDS011;9719;49.322;8.536;2022-09-27T23:08:32;1.40;;;0.90;;
19173;SDS011;9719;49.322;8.536;2022-09-27T23:13:35;1.05;;;0.90;;
19173;SDS011;9719;49.322;8.536;2022-09-27T23:18:40;1.88;;;0.88;;
19173;SDS011;9719;49.322;8.536;2022-09-27T23:23:43;1.13;;;1.10;;
19173;SDS011;9719;49.322;8.536;2022-09-27T23:28:46;2.55;;;1.45;;
19173;SDS011;9719;49.322;8.536;2022-09-27T23:33:53;0.80;;;0.80;;
19173;SDS011;9719;49.322;8.536;2022-09-27T23:38:57;1.25;;;0.90;;
19173;SDS011;9719;49.322;8.536;2022-09-27T23:44:00;1.20;;;0.90;;
19173;SDS011;9719;49.322;8.536;2022-09-27T23:49:03;1.85;;;1.15;;
19173;SDS011;9719;49.322;8.536;2022-09-27T23:54:05;1.30;;;1.20;;
19173;SDS011;9719;49.322;8.536;2022-09-27T23:59:07;1.02;;;1.02;;
